createdAt,value
2022-09-12T03:33:43.284Z,0.00
2022-09-12T03:34:44.200Z,0.00
2022-09-12T03:35:44.202Z,0.00
2022-09-12T03:36:44.177Z,0.00
2022-09-12T03:37:44.167Z,0.00
2022-09-12T03:38:44.217Z,0.00
2022-09-12T03:39:50.781Z,0.00
2022-09-12T03:40:44.140Z,0.00
2022-09-12T03:41:44.144Z,0.00
2022-09-12T03:42:44.120Z,0.00
2022-09-12T03:43:44.109Z,0.00
2022-09-12T03:44:44.083Z,0.00
2022-09-12T03:45:44.122Z,0.00
2022-09-12T03:46:44.092Z,0.00
2022-09-12T03:47:44.071Z,0.00
2022-09-12T03:48:44.100Z,0.00
2022-09-12T03:49:44.045Z,0.00
2022-09-12T03:50:44.018Z,0.00
2022-09-12T03:51:44.012Z,0.00
2022-09-12T03:52:44.005Z,0.00
2022-09-12T03:53:44.002Z,0.00
2022-09-12T03:54:43.998Z,0.00
2022-09-12T03:55:43.965Z,0.00
2022-09-12T03:56:43.965Z,0.00
2022-09-12T03:57:43.978Z,0.00
2022-09-12T03:58:43.995Z,0.00
2022-09-12T03:59:43.962Z,0.00
2022-09-12T04:00:43.914Z,0.00
2022-09-12T04:01:43.924Z,0.00
2022-09-12T04:02:50.448Z,0.00
2022-09-12T04:03:43.936Z,0.00
2022-09-12T04:04:43.886Z,0.00
2022-09-12T04:05:43.856Z,0.00
2022-09-12T04:06:43.856Z,0.00
2022-09-12T04:07:43.848Z,0.00
2022-09-12T04:08:43.903Z,0.00
2022-09-12T04:09:43.814Z,0.00
2022-09-12T04:10:43.812Z,0.00
2022-09-12T04:11:43.799Z,0.00
2022-09-12T04:12:43.800Z,0.00
2022-09-12T04:13:43.791Z,0.00
2022-09-12T04:14:43.798Z,0.00
2022-09-12T04:15:43.754Z,0.00
2022-09-12T04:16:43.784Z,0.00
2022-09-12T04:17:43.737Z,0.00
2022-09-12T04:18:43.710Z,0.00
2022-09-12T04:19:43.741Z,0.00
2022-09-12T04:20:43.728Z,0.00
2022-09-12T04:21:43.678Z,0.00
2022-09-12T04:22:43.698Z,0.00
2022-09-12T04:23:43.659Z,0.00
2022-09-12T04:24:43.664Z,0.00
2022-09-12T04:25:43.643Z,0.00
2022-09-12T04:26:43.629Z,0.00
2022-09-12T04:27:43.632Z,0.00
2022-09-12T04:28:43.610Z,0.00
2022-09-12T04:29:43.598Z,0.00
2022-09-12T04:30:43.610Z,4.00
2022-09-12T04:31:43.587Z,4.00
2022-09-12T04:32:43.584Z,0.00
2022-09-12T04:33:43.574Z,4.00
2022-09-12T04:34:43.587Z,4.00
2022-09-12T04:35:43.521Z,4.00
2022-09-12T04:36:43.519Z,4.00
2022-09-12T04:37:43.505Z,8.00
2022-09-12T04:38:43.521Z,8.00
2022-09-12T04:39:43.622Z,12.00
2022-09-12T04:40:43.466Z,8.00
2022-09-12T04:41:43.513Z,12.00
2022-09-12T04:42:43.446Z,16.00
2022-09-12T04:43:43.464Z,20.00
2022-09-12T04:44:43.435Z,24.00
2022-09-12T04:45:43.484Z,28.00
2022-09-12T04:46:43.409Z,32.00
2022-09-12T04:47:43.397Z,40.00
2022-09-12T04:48:43.388Z,48.00
2022-09-12T04:49:43.372Z,56.00
2022-09-12T04:50:43.372Z,64.00
2022-09-12T04:51:43.353Z,76.00
2022-09-12T04:52:43.344Z,88.00
2022-09-12T04:53:43.342Z,104.00
2022-09-12T04:54:43.329Z,120.00
2022-09-12T04:55:43.304Z,136.00
2022-09-12T04:56:43.346Z,152.00
2022-09-12T04:57:43.281Z,168.00
2022-09-12T04:58:43.366Z,188.00
2022-09-12T04:59:43.323Z,208.00
2022-09-12T05:00:43.246Z,228.00
2022-09-12T05:01:43.232Z,248.00
2022-09-12T05:02:43.229Z,272.00
2022-09-12T05:03:43.213Z,300.00
2022-09-12T05:04:43.206Z,324.00
2022-09-12T05:06:32.094Z,376.00
2022-09-12T05:07:33.572Z,408.00
2022-09-12T05:08:33.016Z,436.00
2022-09-12T05:09:33.004Z,464.00
2022-09-12T05:10:33.010Z,500.00
2022-09-12T05:12:02.080Z,536.00
2022-09-12T05:12:33.002Z,580.00
2022-09-12T05:13:32.962Z,624.00
2022-09-12T05:14:32.973Z,676.00
2022-09-12T05:15:32.941Z,724.00
2022-09-12T05:16:32.981Z,772.00
2022-09-12T05:17:32.913Z,820.00
2022-09-12T05:18:32.900Z,868.00
2022-09-12T05:19:32.924Z,920.00
2022-09-12T05:20:32.891Z,976.00
2022-09-12T05:21:32.874Z,1036.00
2022-09-12T05:22:32.884Z,1096.00
2022-09-12T05:23:32.853Z,1156.00
2022-09-12T05:24:32.841Z,1220.00
2022-09-12T05:25:32.832Z,1288.00
2022-09-12T05:26:32.848Z,1364.00
2022-09-12T05:27:32.813Z,1428.00
2022-09-12T05:28:32.811Z,1500.00
2022-09-12T05:29:32.791Z,1564.00
2022-09-12T05:30:33.250Z,1632.00
2022-09-12T05:31:33.006Z,1696.00
2022-09-12T05:32:32.765Z,1768.00
2022-09-12T05:33:32.736Z,1828.00
2022-09-12T05:34:32.759Z,1888.00
2022-09-12T05:35:32.736Z,1952.00
2022-09-12T05:36:32.741Z,2012.00
2022-09-12T05:37:32.714Z,2068.00
2022-09-12T05:38:32.686Z,2124.00
2022-09-12T05:39:32.664Z,2180.00
2022-09-12T05:40:32.669Z,2232.00
2022-09-12T05:41:32.658Z,2292.00
2022-09-12T05:42:32.653Z,2352.00
2022-09-12T05:43:32.631Z,2412.00
2022-09-12T05:44:32.613Z,2468.00
2022-09-12T05:45:32.636Z,2528.00
2022-09-12T05:46:32.594Z,2580.00
2022-09-12T05:47:32.590Z,2640.00
2022-09-12T05:48:32.583Z,2696.00
2022-09-12T05:49:32.574Z,2764.00
2022-09-12T05:50:32.569Z,2824.00
2022-09-12T05:51:32.531Z,2900.00
2022-09-12T05:52:32.531Z,2956.00
2022-09-12T05:53:32.519Z,3008.00
2022-09-12T05:54:32.563Z,3048.00
2022-09-12T05:55:32.490Z,3088.00
2022-09-12T05:56:32.480Z,3128.00
2022-09-12T05:57:32.491Z,3160.00
2022-09-12T05:58:32.480Z,3208.00
2022-09-12T05:59:32.464Z,3268.00
2022-09-12T06:00:33.675Z,3312.00
2022-09-12T06:01:32.470Z,3348.00
2022-09-12T06:02:32.456Z,3400.00
2022-09-12T06:03:32.402Z,3448.00
2022-09-12T06:04:32.424Z,3492.00
2022-09-12T06:05:32.410Z,3532.00
2022-09-12T06:06:32.428Z,3564.00
2022-09-12T06:07:32.418Z,3596.00
2022-09-12T06:08:32.390Z,3620.00
2022-09-12T06:09:33.017Z,3636.00
2022-09-12T06:10:32.334Z,3648.00
2022-09-12T06:11:32.323Z,3656.00
2022-09-12T06:12:32.299Z,3664.00
2022-09-12T06:13:32.319Z,3696.00
2022-09-12T06:14:32.290Z,3736.00
2022-09-12T06:15:32.290Z,3764.00
2022-09-12T06:16:32.293Z,3792.00
2022-09-12T06:17:32.262Z,3832.00
2022-09-12T06:18:32.265Z,3884.00
2022-09-12T06:19:32.245Z,3920.00
2022-09-12T06:20:32.225Z,3932.00
2022-09-12T06:21:32.221Z,3936.00
2022-09-12T06:22:32.546Z,3932.00
2022-09-12T06:23:32.189Z,3896.00
2022-09-12T06:24:32.197Z,3864.00
2022-09-12T06:25:32.190Z,3832.00
2022-09-12T06:26:32.143Z,3812.00
2022-09-12T06:27:32.152Z,3784.00
2022-09-12T06:28:32.142Z,3760.00
2022-09-12T06:29:32.130Z,3800.00
2022-09-12T06:30:32.163Z,3848.00
2022-09-12T06:31:32.132Z,3888.00
2022-09-12T06:32:32.092Z,3948.00
2022-09-12T06:33:32.068Z,3992.00
2022-09-12T06:34:32.068Z,4012.00
2022-09-12T06:35:32.086Z,4016.00
2022-09-12T06:36:32.056Z,3996.00
2022-09-12T06:37:32.037Z,3988.00
2022-09-12T06:38:32.069Z,3992.00
2022-09-12T06:39:32.011Z,4008.00
2022-09-12T06:40:31.992Z,4032.00
2022-09-12T06:41:32.021Z,4056.00
2022-09-12T06:42:33.174Z,4084.00
2022-09-12T06:43:32.406Z,4128.00
2022-09-12T06:44:31.959Z,4200.00
2022-09-12T06:45:31.989Z,4252.00
2022-09-12T06:46:31.927Z,4332.00
2022-09-12T06:47:31.952Z,4356.00
2022-09-12T06:48:31.913Z,4384.00
2022-09-12T06:49:31.895Z,4424.00
2022-09-12T06:50:31.895Z,4484.00
2022-09-12T06:51:31.897Z,4608.00
2022-09-12T06:52:32.543Z,4712.00
2022-09-12T06:53:31.853Z,4776.00
2022-09-12T06:54:31.856Z,4836.00
2022-09-12T06:55:31.854Z,4864.00
2022-09-12T06:56:31.855Z,4880.00
2022-09-12T06:57:31.822Z,4912.00
2022-09-12T06:58:31.807Z,4928.00
2022-09-12T06:59:32.544Z,4972.00
2022-09-12T07:00:31.791Z,5052.00
2022-09-12T07:01:31.853Z,5164.00
2022-09-12T07:02:31.830Z,5280.00
2022-09-12T07:03:31.873Z,5384.00
2022-09-12T07:04:31.744Z,5512.00
2022-09-12T07:05:31.737Z,5620.00
2022-09-12T07:06:31.763Z,5728.00
2022-09-12T07:07:31.726Z,5852.00
2022-09-12T07:08:31.699Z,5984.00
2022-09-12T07:09:31.769Z,6140.00
2022-09-12T07:10:31.662Z,6272.00
2022-09-12T07:11:31.689Z,6396.00
2022-09-12T07:12:31.631Z,6524.00
2022-09-12T07:13:31.643Z,6656.00
2022-09-12T07:14:31.679Z,6808.00
2022-09-12T07:15:31.603Z,6948.00
2022-09-12T07:16:31.635Z,7076.00
2022-09-12T07:17:31.583Z,7192.00
2022-09-12T07:18:31.599Z,7276.00
2022-09-12T07:19:31.597Z,7352.00
2022-09-12T07:20:31.568Z,7396.00
2022-09-12T07:21:31.548Z,7460.00
2022-09-12T07:22:31.540Z,7556.00
2022-09-12T07:23:31.541Z,7656.00
2022-09-12T07:24:31.530Z,7736.00
2022-09-12T07:25:31.495Z,7792.00
2022-09-12T07:26:31.476Z,7828.00
2022-09-12T07:27:31.692Z,7836.00
2022-09-12T07:28:31.458Z,7832.00
2022-09-12T07:29:38.527Z,7808.00
2022-09-12T07:30:31.461Z,7780.00
2022-09-12T07:31:32.462Z,7744.00
2022-09-12T07:32:31.431Z,7732.00
2022-09-12T07:33:31.838Z,7712.00
2022-09-12T07:34:32.055Z,7684.00
2022-09-12T07:35:31.435Z,7648.00
2022-09-12T07:36:31.458Z,7592.00
2022-09-12T07:37:31.362Z,7528.00
2022-09-12T07:38:31.360Z,7452.00
2022-09-12T07:39:31.372Z,7396.00
2022-09-12T07:40:31.395Z,7316.00
2022-09-12T07:41:31.307Z,7232.00
2022-09-12T07:42:31.299Z,7192.00
2022-09-12T07:43:31.302Z,7164.00
2022-09-12T07:44:31.298Z,7152.00
2022-09-12T07:45:31.300Z,7128.00
2022-09-12T07:46:31.266Z,7124.00
2022-09-12T07:47:31.268Z,7148.00
2022-09-12T07:48:31.231Z,7184.00
2022-09-12T07:49:31.248Z,7236.00
2022-09-12T07:50:31.236Z,7292.00
2022-09-12T07:51:31.306Z,7388.00
2022-09-12T07:52:31.252Z,7520.00
2022-09-12T07:53:31.225Z,7684.00
2022-09-12T07:54:32.165Z,7840.00
2022-09-12T07:55:31.166Z,8012.00
2022-09-12T07:56:34.614Z,8208.00
2022-09-12T07:57:31.165Z,8380.00
2022-09-12T07:58:32.061Z,8500.00
2022-09-12T07:59:51.456Z,8596.00
2022-09-12T08:00:31.148Z,8672.00
2022-09-12T08:01:31.159Z,8752.00
2022-09-12T08:02:31.165Z,8788.00
2022-09-12T08:03:31.077Z,8792.00
2022-09-12T08:04:31.128Z,8808.00
2022-09-12T08:05:31.094Z,8828.00
2022-09-12T08:06:31.041Z,8864.00
2022-09-12T08:07:31.935Z,8824.00
2022-09-12T08:08:31.985Z,8692.00
2022-09-12T08:09:31.773Z,8576.00
2022-09-12T08:10:31.006Z,8644.00
2022-09-12T08:11:31.150Z,8768.00
2022-09-12T08:12:31.005Z,8940.00
2022-09-12T08:13:31.016Z,9064.00
2022-09-12T08:14:30.942Z,9112.00
2022-09-12T08:15:31.002Z,9140.00
2022-09-12T08:16:30.938Z,9212.00
2022-09-12T08:17:30.940Z,9324.00
2022-09-12T08:18:30.897Z,9500.00
2022-09-12T08:19:30.948Z,9652.00
2022-09-12T08:20:30.891Z,9872.00
2022-09-12T08:21:30.907Z,10180.00
2022-09-12T08:22:30.871Z,10472.00
2022-09-12T08:23:30.871Z,10728.00
2022-09-12T08:24:30.837Z,11048.00
2022-09-12T08:25:30.835Z,11248.00
2022-09-12T08:26:31.573Z,11428.00
2022-09-12T08:27:30.834Z,11544.00
2022-09-12T08:28:30.805Z,11764.00
2022-09-12T08:29:30.862Z,12128.00
2022-09-12T08:30:30.806Z,12504.00
2022-09-12T08:31:31.564Z,12848.00
2022-09-12T08:32:30.765Z,13188.00
2022-09-12T08:33:30.762Z,13484.00
2022-09-12T08:34:30.739Z,13832.00
2022-09-12T08:35:30.758Z,14208.00
2022-09-12T08:36:32.258Z,14564.00
2022-09-12T08:37:30.698Z,14960.00
2022-09-12T08:38:30.723Z,15276.00
2022-09-12T08:39:30.698Z,15492.00
2022-09-12T08:40:30.678Z,15656.00
2022-09-12T08:41:30.935Z,15980.00
2022-09-12T08:42:30.712Z,16236.00
2022-09-12T08:43:30.868Z,16604.00
2022-09-12T08:44:31.802Z,16216.00
2022-09-12T08:45:30.830Z,16436.00
2022-09-12T08:46:30.620Z,16624.00
2022-09-12T08:47:31.632Z,17536.00
2022-09-12T08:48:30.824Z,16284.00
2022-09-12T08:49:31.092Z,16424.00
2022-09-12T08:50:30.573Z,16336.00
2022-09-12T08:51:30.575Z,16256.00
2022-09-12T08:52:30.609Z,15912.00
2022-09-12T08:53:30.537Z,17920.00
2022-09-12T08:54:31.332Z,18944.00
2022-09-12T08:55:30.508Z,17504.00
2022-09-12T08:56:31.788Z,18144.00
2022-09-12T08:57:30.623Z,18400.00
2022-09-12T08:58:30.498Z,23520.00
2022-09-12T08:59:30.474Z,21152.00
2022-09-12T09:00:30.471Z,26272.00
2022-09-12T09:01:30.509Z,22272.00
2022-09-12T09:02:30.489Z,22208.00
2022-09-12T09:03:30.427Z,22432.00
2022-09-12T09:04:30.451Z,23232.00
2022-09-12T09:05:30.389Z,21312.00
2022-09-12T09:06:30.410Z,20544.00
2022-09-12T09:07:30.368Z,21760.00
2022-09-12T09:08:30.346Z,26400.00
2022-09-12T09:09:33.289Z,23040.00
2022-09-12T09:10:30.328Z,28480.00
2022-09-12T09:11:30.339Z,38272.00
2022-09-12T09:12:36.897Z,34816.00
2022-09-12T09:13:30.301Z,43520.00
2022-09-12T09:14:30.307Z,64128.00
2022-09-12T09:15:30.326Z,62528.00
2022-09-12T09:16:30.291Z,56832.00
2022-09-12T09:17:30.284Z,52416.00
2022-09-12T09:18:33.731Z,55296.00
2022-09-12T09:19:31.130Z,55616.00
2022-09-12T09:20:30.235Z,42144.00
2022-09-12T09:21:30.267Z,33184.00
2022-09-12T09:22:30.247Z,58752.00
2022-09-12T09:23:30.205Z,56160.00
2022-09-12T09:24:30.406Z,47040.00
2022-09-12T09:25:30.185Z,47424.00
2022-09-12T09:26:30.184Z,45888.00
2022-09-12T09:27:40.549Z,38304.00
2022-09-12T09:28:30.244Z,39776.00
2022-09-12T09:29:30.134Z,45440.00
2022-09-12T09:30:30.135Z,49632.00
2022-09-12T09:31:30.185Z,47520.00
2022-09-12T09:32:30.088Z,53792.00
2022-09-12T09:33:30.113Z,58560.00
2022-09-12T09:34:30.129Z,61600.00
2022-09-12T09:35:34.329Z,63936.00
2022-09-12T09:36:30.646Z,64480.00
2022-09-12T09:37:30.076Z,54592.00
2022-09-12T09:38:30.043Z,56320.00
2022-09-12T09:39:30.053Z,56704.00
2022-09-12T09:40:30.051Z,42112.00
2022-09-12T09:41:30.048Z,49472.00
2022-09-12T09:42:30.025Z,51136.00
2022-09-12T09:43:30.073Z,51168.00
2022-09-12T09:44:29.975Z,46944.00
2022-09-12T09:45:29.969Z,56448.00
2022-09-12T09:46:30.699Z,47712.00
2022-09-12T09:47:31.661Z,50752.00
2022-09-12T09:48:30.655Z,52928.00
2022-09-12T09:49:29.948Z,65728.00
2022-09-12T09:50:29.914Z,67104.00
2022-09-12T09:51:29.895Z,72320.00
2022-09-12T09:52:29.872Z,67936.00
2022-09-12T09:53:29.884Z,71072.00
2022-09-12T09:54:29.855Z,68576.00
2022-09-12T09:55:29.871Z,60288.00
2022-09-12T09:56:29.841Z,65472.00
2022-09-12T09:57:30.657Z,63744.00
2022-09-12T09:58:30.164Z,68736.00
2022-09-12T09:59:29.834Z,70112.00
2022-09-12T10:00:29.813Z,69952.00
2022-09-12T10:01:30.078Z,70112.00
2022-09-12T10:02:29.822Z,70240.00
2022-09-12T10:03:29.759Z,67552.00
2022-09-12T10:04:29.801Z,71040.00
2022-09-12T10:05:29.751Z,68288.00
2022-09-12T10:06:29.737Z,66848.00
2022-09-12T10:07:29.720Z,69440.00
2022-09-12T10:08:30.670Z,71776.00
2022-09-12T10:09:29.708Z,71456.00
2022-09-12T10:10:30.651Z,72160.00
2022-09-12T10:11:29.695Z,72128.00
2022-09-12T10:12:35.780Z,71648.00
2022-09-12T10:13:31.393Z,72448.00
2022-09-12T10:14:29.647Z,73184.00
2022-09-12T10:15:29.873Z,70816.00
2022-09-12T10:16:30.698Z,71776.00
2022-09-12T10:17:34.251Z,72544.00
2022-09-12T10:18:29.826Z,73696.00
2022-09-12T10:19:29.594Z,74080.00
2022-09-12T10:20:29.592Z,74528.00
2022-09-12T10:21:29.657Z,71424.00
2022-09-12T10:22:29.590Z,72160.00
2022-09-12T10:23:29.569Z,41600.00
2022-09-12T10:24:29.989Z,46368.00
2022-09-12T10:25:30.173Z,61856.00
2022-09-12T10:26:29.531Z,67680.00
2022-09-12T10:27:29.554Z,70304.00
2022-09-12T10:28:29.517Z,73984.00
2022-09-12T10:29:29.509Z,69440.00
2022-09-12T10:30:29.570Z,72000.00
2022-09-12T10:31:29.478Z,71744.00
2022-09-12T10:32:30.985Z,71456.00
2022-09-12T10:33:29.494Z,72928.00
2022-09-12T10:34:29.459Z,71872.00
2022-09-12T10:35:29.437Z,73504.00
2022-09-12T10:36:29.452Z,72128.00
2022-09-12T10:37:29.471Z,70688.00
2022-09-12T10:38:29.427Z,71968.00
2022-09-12T10:39:29.406Z,70848.00
2022-09-12T10:40:29.387Z,67872.00
2022-09-12T10:41:29.423Z,70400.00
2022-09-12T10:42:29.382Z,69664.00
2022-09-12T10:43:29.367Z,70720.00
2022-09-12T10:44:29.400Z,73504.00
2022-09-12T10:45:29.337Z,72608.00
2022-09-12T10:46:29.442Z,70688.00
2022-09-12T10:47:29.332Z,69920.00
2022-09-12T10:48:29.314Z,68352.00
2022-09-12T10:49:29.298Z,65504.00
2022-09-12T10:50:29.327Z,68672.00
2022-09-12T10:51:29.310Z,69376.00
2022-09-12T10:52:29.283Z,76608.00
2022-09-12T10:53:34.160Z,73952.00
2022-09-12T10:54:29.253Z,73824.00
2022-09-12T10:55:29.261Z,72992.00
2022-09-12T10:56:29.253Z,72416.00
2022-09-12T10:57:29.234Z,75808.00
2022-09-12T10:58:29.210Z,76896.00
2022-09-12T10:59:29.201Z,77632.00
2022-09-12T11:00:29.404Z,78560.00
2022-09-12T11:01:29.280Z,77280.00
2022-09-12T11:02:30.259Z,75296.00
2022-09-12T11:03:29.175Z,72960.00
2022-09-12T11:04:31.897Z,71904.00
2022-09-12T11:05:29.164Z,70496.00
2022-09-12T11:06:29.154Z,65120.00
2022-09-12T11:07:29.676Z,63776.00
2022-09-12T11:08:29.124Z,64992.00
2022-09-12T11:09:29.122Z,66496.00
2022-09-12T11:10:34.307Z,65856.00
2022-09-12T11:11:29.106Z,59840.00
2022-09-12T11:12:29.088Z,54528.00
2022-09-12T11:13:29.091Z,48256.00
2022-09-12T11:14:29.097Z,43168.00
2022-09-12T11:15:29.099Z,40736.00
2022-09-12T11:16:29.061Z,40192.00
2022-09-12T11:17:29.055Z,37408.00
2022-09-12T11:18:29.024Z,39200.00
2022-09-12T11:19:29.013Z,39840.00
2022-09-12T11:20:29.012Z,40032.00
2022-09-12T11:21:29.029Z,40256.00
2022-09-12T11:22:31.899Z,40416.00
2022-09-12T11:23:28.975Z,40320.00
2022-09-12T11:24:29.014Z,40192.00
2022-09-12T11:25:28.974Z,38560.00
2022-09-12T11:26:28.979Z,38368.00
2022-09-12T11:27:28.959Z,38560.00
2022-09-12T11:28:28.963Z,39360.00
2022-09-12T11:29:28.920Z,37824.00
2022-09-12T11:30:28.988Z,36384.00
2022-09-12T11:31:28.912Z,36832.00
2022-09-12T11:32:29.104Z,39520.00
2022-09-12T11:33:28.897Z,40000.00
2022-09-12T11:34:28.884Z,39488.00
2022-09-12T11:35:28.888Z,39712.00
2022-09-12T11:36:28.861Z,40576.00
2022-09-12T11:37:28.854Z,40768.00
2022-09-12T11:38:28.865Z,41440.00
2022-09-12T11:39:28.853Z,41504.00
2022-09-12T11:40:28.933Z,41824.00
2022-09-12T11:41:28.827Z,41984.00
2022-09-12T11:42:35.348Z,42112.00
2022-09-12T11:43:28.830Z,42400.00
2022-09-12T11:44:28.826Z,43040.00
2022-09-12T11:45:28.773Z,40896.00
2022-09-12T11:46:28.863Z,42816.00
2022-09-12T11:47:28.774Z,43584.00
2022-09-12T11:48:28.780Z,45824.00
2022-09-12T11:49:29.727Z,44992.00
2022-09-12T11:50:28.738Z,44992.00
2022-09-12T11:51:28.729Z,45248.00
2022-09-12T11:52:28.741Z,44768.00
2022-09-12T11:53:28.919Z,45376.00
2022-09-12T11:54:28.733Z,46944.00
2022-09-12T11:55:28.729Z,48928.00
2022-09-12T11:56:28.684Z,51520.00
2022-09-12T11:57:28.673Z,54496.00
2022-09-12T11:58:28.670Z,58464.00
2022-09-12T11:59:28.669Z,61984.00
2022-09-12T12:00:28.871Z,63552.00
2022-09-12T12:01:28.667Z,63296.00
2022-09-12T12:02:28.723Z,61856.00
2022-09-12T12:03:28.670Z,60544.00
2022-09-12T12:04:28.644Z,60224.00
2022-09-12T12:05:28.595Z,60160.00
2022-09-12T12:06:28.619Z,57024.00
2022-09-12T12:07:28.590Z,56800.00
2022-09-12T12:08:28.582Z,58688.00
2022-09-12T12:09:28.576Z,57312.00
2022-09-12T12:10:28.557Z,55040.00
2022-09-12T12:11:28.556Z,54496.00
2022-09-12T12:12:28.552Z,52384.00
2022-09-12T12:13:28.530Z,53376.00
2022-09-12T12:14:28.535Z,53472.00
2022-09-12T12:15:28.547Z,54080.00
2022-09-12T12:16:28.501Z,53280.00
2022-09-12T12:17:28.600Z,56576.00
2022-09-12T12:18:28.486Z,58368.00
2022-09-12T12:19:28.554Z,60032.00
2022-09-12T12:20:28.536Z,57088.00
2022-09-12T12:21:28.736Z,53184.00
2022-09-12T12:22:28.474Z,51072.00
2022-09-12T12:23:28.453Z,50592.00
2022-09-12T12:24:28.466Z,51232.00
2022-09-12T12:25:30.027Z,51680.00
2022-09-12T12:26:28.436Z,50112.00
2022-09-12T12:27:28.437Z,49216.00
2022-09-12T12:28:28.704Z,50272.00
2022-09-12T12:29:28.409Z,51360.00
2022-09-12T12:30:28.408Z,52032.00
2022-09-12T12:31:28.502Z,53824.00
2022-09-12T12:32:28.380Z,53760.00
2022-09-12T12:33:28.378Z,51424.00
2022-09-12T12:34:28.405Z,49088.00
2022-09-12T12:35:28.382Z,49248.00
2022-09-12T12:36:28.368Z,49280.00
2022-09-12T12:37:28.332Z,49248.00
2022-09-12T12:38:28.340Z,50592.00
2022-09-12T12:39:28.355Z,50912.00
2022-09-12T12:40:28.307Z,49440.00
2022-09-12T12:41:28.323Z,48448.00
2022-09-12T12:42:28.285Z,49472.00
2022-09-12T12:43:28.286Z,52416.00
2022-09-12T12:44:28.292Z,55392.00
2022-09-12T12:45:28.263Z,58080.00
2022-09-12T12:46:28.355Z,57312.00
2022-09-12T12:47:28.247Z,56736.00
2022-09-12T12:48:28.305Z,55680.00
2022-09-12T12:49:28.241Z,53440.00
2022-09-12T12:50:28.223Z,52352.00
2022-09-12T12:51:28.223Z,52704.00
2022-09-12T12:52:28.717Z,52768.00
2022-09-12T12:53:28.238Z,52352.00
2022-09-12T12:54:28.190Z,53536.00
2022-09-12T12:55:28.185Z,55072.00
2022-09-12T12:56:28.226Z,56288.00
2022-09-12T12:57:28.240Z,57952.00
2022-09-12T12:58:28.147Z,61856.00
2022-09-12T12:59:28.156Z,62336.00
2022-09-12T13:00:28.169Z,63264.00
2022-09-12T13:01:28.148Z,63264.00
2022-09-12T13:02:28.194Z,63744.00
2022-09-12T13:03:28.100Z,63264.00
2022-09-12T13:04:28.140Z,64224.00
2022-09-12T13:05:28.103Z,66432.00
2022-09-12T13:06:28.092Z,67904.00
2022-09-12T13:07:28.086Z,70752.00
2022-09-12T13:08:28.081Z,73696.00
2022-09-12T13:09:28.158Z,77152.00
2022-09-12T13:10:28.722Z,79872.00
2022-09-12T13:11:28.052Z,83520.00
2022-09-12T13:12:28.058Z,87456.00
2022-09-12T13:13:28.055Z,87776.00
2022-09-12T13:14:28.075Z,90432.00
2022-09-12T13:15:28.079Z,89920.00
2022-09-12T13:16:28.007Z,91264.00
2022-09-12T13:17:27.993Z,93280.00
2022-09-12T13:18:27.993Z,95968.00
2022-09-12T13:19:28.043Z,101056.00
2022-09-12T13:20:29.230Z,110624.00
2022-09-12T13:21:27.971Z,117888.00
2022-09-12T13:22:27.960Z,125440.00
2022-09-12T13:23:27.977Z,130176.00
2022-09-12T13:24:27.959Z,131264.00
2022-09-12T13:25:27.938Z,130816.00
2022-09-12T13:26:27.916Z,125504.00
2022-09-12T13:27:27.895Z,121120.00
2022-09-12T13:28:27.917Z,115776.00
2022-09-12T13:29:27.891Z,109952.00
2022-09-12T13:30:27.923Z,102848.00
2022-09-12T13:31:27.904Z,95296.00
2022-09-12T13:32:27.927Z,91872.00
2022-09-12T13:33:27.855Z,84832.00
2022-09-12T13:34:27.861Z,82208.00
2022-09-12T13:35:27.859Z,80608.00
2022-09-12T13:36:27.835Z,78208.00
2022-09-12T13:37:27.854Z,74528.00
2022-09-12T13:38:27.855Z,69600.00
2022-09-12T13:39:27.840Z,66176.00
2022-09-12T13:40:27.892Z,63200.00
2022-09-12T13:41:27.785Z,61984.00
2022-09-12T13:42:27.818Z,59488.00
2022-09-12T13:43:27.820Z,59008.00
2022-09-12T13:44:27.905Z,58080.00
2022-09-12T13:45:27.776Z,58816.00
2022-09-12T13:46:27.801Z,58784.00
2022-09-12T13:47:27.743Z,57632.00
2022-09-12T13:48:27.791Z,58080.00
2022-09-12T13:49:27.804Z,57920.00
2022-09-12T13:50:27.790Z,58272.00
2022-09-12T13:51:27.696Z,56064.00
2022-09-12T13:52:34.266Z,52832.00
2022-09-12T13:53:27.707Z,49120.00
2022-09-12T13:54:27.679Z,46752.00
2022-09-12T13:55:27.746Z,44832.00
2022-09-12T13:56:27.662Z,42144.00
2022-09-12T13:57:27.667Z,41376.00
2022-09-12T13:58:27.677Z,39328.00
2022-09-12T13:59:27.646Z,36448.00
2022-09-12T14:00:27.627Z,35328.00
2022-09-12T14:01:27.706Z,33536.00
2022-09-12T14:02:27.739Z,33568.00
2022-09-12T14:03:27.641Z,32064.00
2022-09-12T14:04:27.594Z,31936.00
2022-09-12T14:05:27.594Z,31328.00
2022-09-12T14:06:27.691Z,30464.00
2022-09-12T14:07:27.589Z,29504.00
2022-09-12T14:08:27.555Z,28000.00
2022-09-12T14:09:27.670Z,28352.00
2022-09-12T14:10:27.539Z,28608.00
2022-09-12T14:11:27.535Z,29056.00
2022-09-12T14:12:27.560Z,28704.00
2022-09-12T14:13:27.516Z,28352.00
2022-09-12T14:14:27.546Z,28800.00
2022-09-12T14:15:27.706Z,28512.00
2022-09-12T14:16:27.522Z,27296.00
2022-09-12T14:17:27.501Z,26560.00
2022-09-12T14:18:27.523Z,26592.00
2022-09-12T14:19:27.486Z,26272.00
2022-09-12T14:20:27.459Z,26048.00
2022-09-12T14:21:27.714Z,25952.00
2022-09-12T14:22:27.441Z,25568.00
2022-09-12T14:23:27.469Z,25888.00
2022-09-12T14:24:27.554Z,25600.00
2022-09-12T14:25:27.467Z,25792.00
2022-09-12T14:26:27.432Z,25504.00
2022-09-12T14:27:27.391Z,25760.00
2022-09-12T14:28:27.413Z,25376.00
2022-09-12T14:29:27.397Z,25344.00
2022-09-12T14:30:27.375Z,25056.00
2022-09-12T14:31:27.415Z,24544.00
2022-09-12T14:32:27.361Z,24608.00
2022-09-12T14:33:27.359Z,24256.00
2022-09-12T14:34:27.438Z,24896.00
2022-09-12T14:35:27.368Z,25088.00
2022-09-12T14:36:27.349Z,24928.00
2022-09-12T14:37:27.333Z,24960.00
2022-09-12T14:38:27.318Z,24704.00
2022-09-12T14:39:27.287Z,24192.00
2022-09-12T14:40:27.369Z,23744.00
2022-09-12T14:41:27.290Z,23648.00
2022-09-12T14:42:33.782Z,23264.00
2022-09-12T14:43:27.334Z,22560.00
2022-09-12T14:44:27.254Z,22368.00
2022-09-12T14:45:27.240Z,23072.00
2022-09-12T14:46:27.277Z,22272.00
2022-09-12T14:47:27.264Z,21728.00
2022-09-12T14:48:27.219Z,20800.00
2022-09-12T14:49:27.222Z,20352.00
2022-09-12T14:50:27.197Z,19232.00
2022-09-12T14:51:27.213Z,19232.00
2022-09-12T14:52:27.237Z,18752.00
2022-09-12T14:53:27.187Z,19008.00
2022-09-12T14:54:27.159Z,19328.00
2022-09-12T14:55:27.164Z,19296.00
2022-09-12T14:56:27.179Z,19264.00
2022-09-12T14:57:27.804Z,19584.00
2022-09-12T14:58:27.134Z,19008.00
2022-09-12T14:59:27.128Z,17856.00
2022-09-12T15:00:27.174Z,18016.00
2022-09-12T15:01:27.164Z,18272.00
2022-09-12T15:02:27.108Z,18080.00
2022-09-12T15:03:27.081Z,18272.00
2022-09-12T15:04:27.147Z,16960.00
2022-09-12T15:05:27.073Z,15936.00
2022-09-12T15:06:27.099Z,16512.00
2022-09-12T15:07:27.059Z,17088.00
2022-09-12T15:08:27.049Z,17536.00
2022-09-12T15:09:27.058Z,18304.00
2022-09-12T15:10:27.022Z,17920.00
2022-09-12T15:11:27.020Z,19488.00
2022-09-12T15:12:27.004Z,18464.00
2022-09-12T15:13:26.995Z,19616.00
2022-09-12T15:14:27.000Z,20128.00
2022-09-12T15:15:26.977Z,19936.00
2022-09-12T15:16:26.973Z,19616.00
2022-09-12T15:17:26.954Z,19648.00
2022-09-12T15:18:26.971Z,18368.00
2022-09-12T15:19:26.942Z,17440.00
2022-09-12T15:20:26.937Z,15360.00
2022-09-12T15:21:26.920Z,14008.00
2022-09-12T15:22:26.909Z,12760.00
2022-09-12T15:23:26.944Z,12440.00
2022-09-12T15:24:26.891Z,12800.00
2022-09-12T15:25:26.888Z,13320.00
2022-09-12T15:26:26.872Z,13564.00
2022-09-12T15:27:26.878Z,13580.00
2022-09-12T15:28:27.121Z,13036.00
2022-09-12T15:29:26.862Z,13192.00
2022-09-12T15:30:26.835Z,14196.00
2022-09-12T15:31:26.939Z,14396.00
2022-09-12T15:32:26.819Z,14592.00
2022-09-12T15:33:26.819Z,14212.00